sensor_id;sensor_type;location;lat;lon;timestamp;P1;durP1;ratioP1;P2;durP2;ratioP2
19183;SDS011;9724;51.194;6.856;2023-06-10T00:01:45;6.87;;;5.80;;
19183;SDS011;9724;51.194;6.856;2023-06-10T00:04:13;8.90;;;7.30;;
19183;SDS011;9724;51.194;6.856;2023-06-10T00:06:39;7.33;;;6.10;;
19183;SDS011;9724;51.194;6.856;2023-06-10T00:09:06;7.43;;;6.37;;
19183;SDS011;9724;51.194;6.856;2023-06-10T00:11:35;8.10;;;6.53;;
19183;SDS011;9724;51.194;6.856;2023-06-10T00:14:02;15.33;;;6.60;;
19183;SDS011;9724;51.194;6.856;2023-06-10T00:16:28;7.87;;;6.37;;
19183;SDS011;9724;51.194;6.856;2023-06-10T00:18:56;6.83;;;6.23;;
19183;SDS011;9724;51.194;6.856;2023-06-10T00:21:26;6.57;;;6.03;;
19183;SDS011;9724;51.194;6.856;2023-06-10T00:23:52;7.97;;;6.43;;
19183;SDS011;9724;51.194;6.856;2023-06-10T00:26:19;10.57;;;6.53;;
19183;SDS011;9724;51.194;6.856;2023-06-10T00:28:45;9.53;;;6.27;;
19183;SDS011;9724;51.194;6.856;2023-06-10T00:31:12;9.33;;;6.60;;
19183;SDS011;9724;51.194;6.856;2023-06-10T00:33:38;10.43;;;6.63;;
19183;SDS011;9724;51.194;6.856;2023-06-10T00:36:04;8.90;;;6.97;;
19183;SDS011;9724;51.194;6.856;2023-06-10T00:38:31;8.57;;;6.30;;
19183;SDS011;9724;51.194;6.856;2023-06-10T00:40:57;7.70;;;6.90;;
19183;SDS011;9724;51.194;6.856;2023-06-10T00:43:24;8.43;;;6.93;;
19183;SDS011;9724;51.194;6.856;2023-06-10T00:45:50;13.27;;;6.33;;
19183;SDS011;9724;51.194;6.856;2023-06-10T00:48:17;11.23;;;6.90;;
19183;SDS011;9724;51.194;6.856;2023-06-10T00:50:44;11.00;;;6.70;;
19183;SDS011;9724;51.194;6.856;2023-06-10T00:53:10;10.83;;;7.07;;
19183;SDS011;9724;51.194;6.856;2023-06-10T00:55:36;7.63;;;6.50;;
19183;SDS011;9724;51.194;6.856;2023-06-10T00:58:03;10.83;;;7.07;;
19183;SDS011;9724;51.194;6.856;2023-06-10T01:00:30;16.40;;;6.90;;
19183;SDS011;9724;51.194;6.856;2023-06-10T01:02:57;8.43;;;6.73;;
19183;SDS011;9724;51.194;6.856;2023-06-10T01:05:23;9.67;;;6.70;;
19183;SDS011;9724;51.194;6.856;2023-06-10T01:07:52;7.30;;;6.60;;
19183;SDS011;9724;51.194;6.856;2023-06-10T01:10:23;7.87;;;6.77;;
19183;SDS011;9724;51.194;6.856;2023-06-10T01:12:54;7.60;;;6.80;;
19183;SDS011;9724;51.194;6.856;2023-06-10T01:15:22;16.20;;;6.83;;
19183;SDS011;9724;51.194;6.856;2023-06-10T01:17:54;12.97;;;7.17;;
19183;SDS011;9724;51.194;6.856;2023-06-10T01:20:21;9.33;;;6.93;;
19183;SDS011;9724;51.194;6.856;2023-06-10T01:22:48;8.70;;;6.87;;
19183;SDS011;9724;51.194;6.856;2023-06-10T01:25:16;9.97;;;7.07;;
19183;SDS011;9724;51.194;6.856;2023-06-10T01:27:42;12.87;;;7.37;;
19183;SDS011;9724;51.194;6.856;2023-06-10T01:30:12;10.67;;;7.00;;
19183;SDS011;9724;51.194;6.856;2023-06-10T01:32:43;8.37;;;6.67;;
19183;SDS011;9724;51.194;6.856;2023-06-10T01:35:11;9.83;;;7.50;;
19183;SDS011;9724;51.194;6.856;2023-06-10T01:37:37;11.53;;;7.67;;
19183;SDS011;9724;51.194;6.856;2023-06-10T01:40:06;7.90;;;7.10;;
19183;SDS011;9724;51.194;6.856;2023-06-10T01:42:33;8.17;;;6.60;;
19183;SDS011;9724;51.194;6.856;2023-06-10T01:45:00;9.17;;;6.57;;
19183;SDS011;9724;51.194;6.856;2023-06-10T01:47:26;10.13;;;7.37;;
19183;SDS011;9724;51.194;6.856;2023-06-10T01:49:53;9.60;;;7.77;;
19183;SDS011;9724;51.194;6.856;2023-06-10T01:52:19;9.40;;;7.37;;
19183;SDS011;9724;51.194;6.856;2023-06-10T01:54:45;7.90;;;7.00;;
19183;SDS011;9724;51.194;6.856;2023-06-10T01:57:12;8.50;;;7.20;;
19183;SDS011;9724;51.194;6.856;2023-06-10T01:59:39;9.67;;;7.77;;
19183;SDS011;9724;51.194;6.856;2023-06-10T02:02:05;11.40;;;7.57;;
19183;SDS011;9724;51.194;6.856;2023-06-10T02:04:31;8.77;;;7.73;;
19183;SDS011;9724;51.194;6.856;2023-06-10T02:06:58;9.23;;;7.40;;
19183;SDS011;9724;51.194;6.856;2023-06-10T02:09:24;9.00;;;7.40;;
19183;SDS011;9724;51.194;6.856;2023-06-10T02:11:50;9.10;;;7.93;;
19183;SDS011;9724;51.194;6.856;2023-06-10T02:14:18;11.47;;;8.10;;
19183;SDS011;9724;51.194;6.856;2023-06-10T02:16:44;8.67;;;7.77;;
19183;SDS011;9724;51.194;6.856;2023-06-10T02:19:10;11.47;;;7.90;;
19183;SDS011;9724;51.194;6.856;2023-06-10T02:21:37;9.20;;;8.20;;
19183;SDS011;9724;51.194;6.856;2023-06-10T02:24:04;10.83;;;8.20;;
19183;SDS011;9724;51.194;6.856;2023-06-10T02:26:31;12.57;;;8.10;;
19183;SDS011;9724;51.194;6.856;2023-06-10T02:28:57;8.87;;;7.97;;
19183;SDS011;9724;51.194;6.856;2023-06-10T02:31:24;10.03;;;8.30;;
19183;SDS011;9724;51.194;6.856;2023-06-10T02:33:51;12.37;;;8.33;;
19183;SDS011;9724;51.194;6.856;2023-06-10T02:36:18;12.67;;;8.47;;
19183;SDS011;9724;51.194;6.856;2023-06-10T02:38:44;10.03;;;8.23;;
19183;SDS011;9724;51.194;6.856;2023-06-10T02:41:10;9.73;;;8.70;;
19183;SDS011;9724;51.194;6.856;2023-06-10T02:43:37;10.00;;;8.10;;
19183;SDS011;9724;51.194;6.856;2023-06-10T02:46:03;12.43;;;8.80;;
19183;SDS011;9724;51.194;6.856;2023-06-10T02:48:30;10.47;;;8.13;;
19183;SDS011;9724;51.194;6.856;2023-06-10T02:50:56;13.13;;;8.30;;
19183;SDS011;9724;51.194;6.856;2023-06-10T02:53:23;8.97;;;7.83;;
19183;SDS011;9724;51.194;6.856;2023-06-10T02:55:49;14.03;;;8.77;;
19183;SDS011;9724;51.194;6.856;2023-06-10T02:58:15;10.67;;;7.93;;
19183;SDS011;9724;51.194;6.856;2023-06-10T03:00:42;10.00;;;8.80;;
19183;SDS011;9724;51.194;6.856;2023-06-10T03:03:08;11.27;;;8.00;;
19183;SDS011;9724;51.194;6.856;2023-06-10T03:05:36;9.70;;;8.07;;
19183;SDS011;9724;51.194;6.856;2023-06-10T03:08:03;17.73;;;8.90;;
19183;SDS011;9724;51.194;6.856;2023-06-10T03:10:29;8.60;;;7.73;;
19183;SDS011;9724;51.194;6.856;2023-06-10T03:12:57;11.23;;;8.40;;
19183;SDS011;9724;51.194;6.856;2023-06-10T03:15:23;15.40;;;7.93;;
19183;SDS011;9724;51.194;6.856;2023-06-10T03:17:50;10.07;;;8.83;;
19183;SDS011;9724;51.194;6.856;2023-06-10T03:20:16;9.83;;;8.23;;
19183;SDS011;9724;51.194;6.856;2023-06-10T03:22:43;10.43;;;8.40;;
19183;SDS011;9724;51.194;6.856;2023-06-10T03:25:09;11.00;;;8.07;;
19183;SDS011;9724;51.194;6.856;2023-06-10T03:27:39;9.43;;;8.07;;
19183;SDS011;9724;51.194;6.856;2023-06-10T03:30:05;13.70;;;8.53;;
19183;SDS011;9724;51.194;6.856;2023-06-10T03:32:33;18.63;;;8.97;;
19183;SDS011;9724;51.194;6.856;2023-06-10T03:35:01;13.40;;;8.47;;
19183;SDS011;9724;51.194;6.856;2023-06-10T03:37:27;16.53;;;8.50;;
19183;SDS011;9724;51.194;6.856;2023-06-10T03:39:54;17.77;;;8.23;;
19183;SDS011;9724;51.194;6.856;2023-06-10T03:42:20;11.13;;;8.03;;
19183;SDS011;9724;51.194;6.856;2023-06-10T03:44:46;9.10;;;8.20;;
19183;SDS011;9724;51.194;6.856;2023-06-10T03:47:13;13.30;;;8.63;;
19183;SDS011;9724;51.194;6.856;2023-06-10T03:49:39;11.33;;;8.43;;
19183;SDS011;9724;51.194;6.856;2023-06-10T03:52:06;12.50;;;8.90;;
19183;SDS011;9724;51.194;6.856;2023-06-10T03:54:32;12.97;;;8.40;;
19183;SDS011;9724;51.194;6.856;2023-06-10T03:57:00;11.47;;;8.80;;
19183;SDS011;9724;51.194;6.856;2023-06-10T03:59:26;10.33;;;8.53;;
19183;SDS011;9724;51.194;6.856;2023-06-10T04:01:54;10.17;;;8.60;;
19183;SDS011;9724;51.194;6.856;2023-06-10T04:04:20;11.70;;;9.03;;
19183;SDS011;9724;51.194;6.856;2023-06-10T04:06:46;12.23;;;8.73;;
19183;SDS011;9724;51.194;6.856;2023-06-10T04:09:14;12.10;;;8.83;;
19183;SDS011;9724;51.194;6.856;2023-06-10T04:11:41;12.80;;;8.63;;
19183;SDS011;9724;51.194;6.856;2023-06-10T04:14:08;12.93;;;8.60;;
19183;SDS011;9724;51.194;6.856;2023-06-10T04:16:34;14.57;;;8.50;;
19183;SDS011;9724;51.194;6.856;2023-06-10T04:19:01;9.83;;;8.40;;
19183;SDS011;9724;51.194;6.856;2023-06-10T04:21:27;9.23;;;8.27;;
19183;SDS011;9724;51.194;6.856;2023-06-10T04:23:53;10.13;;;8.20;;
19183;SDS011;9724;51.194;6.856;2023-06-10T04:26:20;13.50;;;9.17;;
19183;SDS011;9724;51.194;6.856;2023-06-10T04:28:47;10.60;;;8.07;;
19183;SDS011;9724;51.194;6.856;2023-06-10T04:31:14;9.70;;;8.07;;
19183;SDS011;9724;51.194;6.856;2023-06-10T04:33:40;10.50;;;8.23;;
19183;SDS011;9724;51.194;6.856;2023-06-10T04:36:06;11.63;;;8.33;;
19183;SDS011;9724;51.194;6.856;2023-06-10T04:38:33;10.53;;;8.33;;
19183;SDS011;9724;51.194;6.856;2023-06-10T04:40:59;8.77;;;7.87;;
19183;SDS011;9724;51.194;6.856;2023-06-10T04:43:25;17.53;;;8.37;;
19183;SDS011;9724;51.194;6.856;2023-06-10T04:45:53;11.80;;;8.47;;
19183;SDS011;9724;51.194;6.856;2023-06-10T04:48:20;9.97;;;8.43;;
19183;SDS011;9724;51.194;6.856;2023-06-10T04:50:46;12.07;;;7.83;;
19183;SDS011;9724;51.194;6.856;2023-06-10T04:53:13;12.93;;;8.53;;
19183;SDS011;9724;51.194;6.856;2023-06-10T04:55:40;8.73;;;7.30;;
19183;SDS011;9724;51.194;6.856;2023-06-10T04:58:07;10.80;;;8.00;;
19183;SDS011;9724;51.194;6.856;2023-06-10T05:00:33;10.00;;;7.70;;
19183;SDS011;9724;51.194;6.856;2023-06-10T05:02:59;11.07;;;7.67;;
19183;SDS011;9724;51.194;6.856;2023-06-10T05:05:26;9.43;;;7.77;;
19183;SDS011;9724;51.194;6.856;2023-06-10T05:07:52;9.63;;;7.43;;
19183;SDS011;9724;51.194;6.856;2023-06-10T05:10:19;12.80;;;8.13;;
19183;SDS011;9724;51.194;6.856;2023-06-10T05:12:45;9.77;;;7.80;;
19183;SDS011;9724;51.194;6.856;2023-06-10T05:15:11;11.87;;;7.50;;
19183;SDS011;9724;51.194;6.856;2023-06-10T05:17:38;14.93;;;7.43;;
19183;SDS011;9724;51.194;6.856;2023-06-10T05:20:05;8.33;;;6.90;;
19183;SDS011;9724;51.194;6.856;2023-06-10T05:22:32;9.03;;;7.40;;
19183;SDS011;9724;51.194;6.856;2023-06-10T05:24:59;13.37;;;7.07;;
19183;SDS011;9724;51.194;6.856;2023-06-10T05:27:26;12.90;;;7.17;;
19183;SDS011;9724;51.194;6.856;2023-06-10T05:29:52;8.40;;;6.73;;
19183;SDS011;9724;51.194;6.856;2023-06-10T05:32:18;10.50;;;7.00;;
19183;SDS011;9724;51.194;6.856;2023-06-10T05:34:44;11.10;;;6.63;;
19183;SDS011;9724;51.194;6.856;2023-06-10T05:37:12;8.10;;;6.43;;
19183;SDS011;9724;51.194;6.856;2023-06-10T05:39:39;12.40;;;6.57;;
19183;SDS011;9724;51.194;6.856;2023-06-10T05:42:06;9.93;;;6.77;;
19183;SDS011;9724;51.194;6.856;2023-06-10T05:44:33;12.37;;;6.17;;
19183;SDS011;9724;51.194;6.856;2023-06-10T05:46:59;9.07;;;6.33;;
19183;SDS011;9724;51.194;6.856;2023-06-10T05:49:26;9.77;;;6.37;;
19183;SDS011;9724;51.194;6.856;2023-06-10T05:51:52;10.20;;;6.17;;
19183;SDS011;9724;51.194;6.856;2023-06-10T05:54:19;9.33;;;6.37;;
19183;SDS011;9724;51.194;6.856;2023-06-10T05:56:46;10.17;;;5.90;;
19183;SDS011;9724;51.194;6.856;2023-06-10T05:59:12;12.70;;;6.20;;
19183;SDS011;9724;51.194;6.856;2023-06-10T06:01:38;8.80;;;5.90;;
19183;SDS011;9724;51.194;6.856;2023-06-10T06:04:05;8.30;;;6.10;;
19183;SDS011;9724;51.194;6.856;2023-06-10T06:06:31;10.83;;;6.30;;
19183;SDS011;9724;51.194;6.856;2023-06-10T06:08:57;6.53;;;5.90;;
19183;SDS011;9724;51.194;6.856;2023-06-10T06:11:23;8.00;;;5.97;;
19183;SDS011;9724;51.194;6.856;2023-06-10T06:13:51;8.70;;;5.83;;
19183;SDS011;9724;51.194;6.856;2023-06-10T06:16:19;10.53;;;6.13;;
19183;SDS011;9724;51.194;6.856;2023-06-10T06:18:45;10.17;;;5.87;;
19183;SDS011;9724;51.194;6.856;2023-06-10T06:21:11;11.07;;;6.00;;
19183;SDS011;9724;51.194;6.856;2023-06-10T06:23:37;10.97;;;5.60;;
19183;SDS011;9724;51.194;6.856;2023-06-10T06:26:04;7.37;;;5.67;;
19183;SDS011;9724;51.194;6.856;2023-06-10T06:28:34;8.17;;;6.03;;
19183;SDS011;9724;51.194;6.856;2023-06-10T06:31:00;6.13;;;5.53;;
19183;SDS011;9724;51.194;6.856;2023-06-10T06:33:27;11.10;;;6.30;;
19183;SDS011;9724;51.194;6.856;2023-06-10T06:35:53;11.80;;;5.73;;
19183;SDS011;9724;51.194;6.856;2023-06-10T06:38:19;11.80;;;5.90;;
19183;SDS011;9724;51.194;6.856;2023-06-10T06:40:46;16.23;;;5.60;;
19183;SDS011;9724;51.194;6.856;2023-06-10T06:43:12;6.67;;;5.60;;
19183;SDS011;9724;51.194;6.856;2023-06-10T06:45:38;8.73;;;5.53;;
19183;SDS011;9724;51.194;6.856;2023-06-10T06:48:05;10.77;;;5.97;;
19183;SDS011;9724;51.194;6.856;2023-06-10T06:50:32;8.98;;;5.45;;
19183;SDS011;9724;51.194;6.856;2023-06-10T06:52:58;10.07;;;5.93;;
19183;SDS011;9724;51.194;6.856;2023-06-10T06:55:24;16.87;;;5.70;;
19183;SDS011;9724;51.194;6.856;2023-06-10T06:57:50;8.15;;;5.07;;
19183;SDS011;9724;51.194;6.856;2023-06-10T07:00:17;5.87;;;5.27;;
19183;SDS011;9724;51.194;6.856;2023-06-10T07:02:44;8.85;;;5.63;;
19183;SDS011;9724;51.194;6.856;2023-06-10T07:05:11;7.38;;;5.57;;
19183;SDS011;9724;51.194;6.856;2023-06-10T07:07:38;8.27;;;5.93;;
19183;SDS011;9724;51.194;6.856;2023-06-10T07:10:05;7.80;;;5.57;;
19183;SDS011;9724;51.194;6.856;2023-06-10T07:12:32;6.70;;;5.50;;
19183;SDS011;9724;51.194;6.856;2023-06-10T07:14:58;10.00;;;5.82;;
19183;SDS011;9724;51.194;6.856;2023-06-10T07:17:24;7.47;;;5.50;;
19183;SDS011;9724;51.194;6.856;2023-06-10T07:19:52;10.50;;;5.45;;
19183;SDS011;9724;51.194;6.856;2023-06-10T07:22:19;6.45;;;5.60;;
19183;SDS011;9724;51.194;6.856;2023-06-10T07:24:45;5.55;;;5.03;;
19183;SDS011;9724;51.194;6.856;2023-06-10T07:27:12;11.93;;;5.95;;
19183;SDS011;9724;51.194;6.856;2023-06-10T07:29:38;8.02;;;5.20;;
19183;SDS011;9724;51.194;6.856;2023-06-10T07:32:04;9.07;;;5.50;;
19183;SDS011;9724;51.194;6.856;2023-06-10T07:34:31;6.72;;;6.03;;
19183;SDS011;9724;51.194;6.856;2023-06-10T07:36:57;9.95;;;5.43;;
19183;SDS011;9724;51.194;6.856;2023-06-10T07:39:24;7.47;;;5.80;;
19183;SDS011;9724;51.194;6.856;2023-06-10T07:41:51;8.52;;;5.57;;
19183;SDS011;9724;51.194;6.856;2023-06-10T07:44:19;6.25;;;5.32;;
19183;SDS011;9724;51.194;6.856;2023-06-10T07:46:45;8.35;;;5.60;;
19183;SDS011;9724;51.194;6.856;2023-06-10T07:49:12;8.13;;;5.70;;
19183;SDS011;9724;51.194;6.856;2023-06-10T07:51:38;8.90;;;5.53;;
19183;SDS011;9724;51.194;6.856;2023-06-10T07:54:04;10.20;;;6.13;;
19183;SDS011;9724;51.194;6.856;2023-06-10T07:56:31;6.03;;;5.43;;
19183;SDS011;9724;51.194;6.856;2023-06-10T07:58:58;7.68;;;5.60;;
19183;SDS011;9724;51.194;6.856;2023-06-10T08:01:24;7.22;;;5.93;;
19183;SDS011;9724;51.194;6.856;2023-06-10T08:03:50;6.85;;;5.72;;
19183;SDS011;9724;51.194;6.856;2023-06-10T08:06:17;14.82;;;6.18;;
19183;SDS011;9724;51.194;6.856;2023-06-10T08:08:43;6.10;;;5.50;;
19183;SDS011;9724;51.194;6.856;2023-06-10T08:11:11;6.70;;;5.47;;
19183;SDS011;9724;51.194;6.856;2023-06-10T08:13:38;10.38;;;5.40;;
19183;SDS011;9724;51.194;6.856;2023-06-10T08:16:05;8.23;;;5.80;;
19183;SDS011;9724;51.194;6.856;2023-06-10T08:18:31;9.18;;;6.15;;
19183;SDS011;9724;51.194;6.856;2023-06-10T08:20:58;9.45;;;6.22;;
19183;SDS011;9724;51.194;6.856;2023-06-10T08:23:24;9.93;;;6.18;;
19183;SDS011;9724;51.194;6.856;2023-06-10T08:25:50;11.13;;;5.72;;
19183;SDS011;9724;51.194;6.856;2023-06-10T08:28:16;7.35;;;6.20;;
19183;SDS011;9724;51.194;6.856;2023-06-10T08:30:44;11.35;;;5.85;;
19183;SDS011;9724;51.194;6.856;2023-06-10T08:33:10;10.50;;;6.10;;
19183;SDS011;9724;51.194;6.856;2023-06-10T08:35:39;9.05;;;6.50;;
19183;SDS011;9724;51.194;6.856;2023-06-10T08:38:05;9.82;;;6.15;;
19183;SDS011;9724;51.194;6.856;2023-06-10T08:40:32;9.35;;;5.90;;
19183;SDS011;9724;51.194;6.856;2023-06-10T08:43:00;13.15;;;6.65;;
19183;SDS011;9724;51.194;6.856;2023-06-10T08:45:29;7.97;;;5.53;;
19183;SDS011;9724;51.194;6.856;2023-06-10T08:47:58;11.13;;;6.45;;
19183;SDS011;9724;51.194;6.856;2023-06-10T08:50:25;9.15;;;5.78;;
19183;SDS011;9724;51.194;6.856;2023-06-10T08:52:54;6.07;;;5.43;;
19183;SDS011;9724;51.194;6.856;2023-06-10T08:55:24;6.45;;;5.78;;
19183;SDS011;9724;51.194;6.856;2023-06-10T08:57:57;9.60;;;6.38;;
19183;SDS011;9724;51.194;6.856;2023-06-10T09:00:25;9.07;;;6.35;;
19183;SDS011;9724;51.194;6.856;2023-06-10T09:02:52;6.85;;;6.10;;
19183;SDS011;9724;51.194;6.856;2023-06-10T09:05:19;6.53;;;5.45;;
19183;SDS011;9724;51.194;6.856;2023-06-10T09:07:45;8.50;;;6.15;;
19183;SDS011;9724;51.194;6.856;2023-06-10T09:10:14;6.40;;;5.75;;
19183;SDS011;9724;51.194;6.856;2023-06-10T09:12:40;9.07;;;6.10;;
19183;SDS011;9724;51.194;6.856;2023-06-10T09:15:07;8.40;;;6.28;;
19183;SDS011;9724;51.194;6.856;2023-06-10T09:17:34;9.90;;;5.95;;
19183;SDS011;9724;51.194;6.856;2023-06-10T09:20:02;10.75;;;6.07;;
19183;SDS011;9724;51.194;6.856;2023-06-10T09:22:30;10.02;;;6.28;;
19183;SDS011;9724;51.194;6.856;2023-06-10T09:25:02;11.82;;;6.25;;
19183;SDS011;9724;51.194;6.856;2023-06-10T09:27:31;10.90;;;5.97;;
19183;SDS011;9724;51.194;6.856;2023-06-10T09:29:58;6.93;;;6.22;;
19183;SDS011;9724;51.194;6.856;2023-06-10T09:32:24;10.52;;;6.15;;
19183;SDS011;9724;51.194;6.856;2023-06-10T09:34:51;7.30;;;5.75;;
19183;SDS011;9724;51.194;6.856;2023-06-10T09:37:19;9.75;;;5.65;;
19183;SDS011;9724;51.194;6.856;2023-06-10T09:39:47;7.43;;;5.88;;
19183;SDS011;9724;51.194;6.856;2023-06-10T09:42:27;9.10;;;5.97;;
19183;SDS011;9724;51.194;6.856;2023-06-10T09:44:53;8.73;;;5.80;;
19183;SDS011;9724;51.194;6.856;2023-06-10T09:47:20;6.95;;;6.25;;
19183;SDS011;9724;51.194;6.856;2023-06-10T09:49:48;8.80;;;5.63;;
19183;SDS011;9724;51.194;6.856;2023-06-10T09:52:14;16.70;;;6.40;;
19183;SDS011;9724;51.194;6.856;2023-06-10T09:54:48;7.28;;;6.40;;
19183;SDS011;9724;51.194;6.856;2023-06-10T09:57:14;7.57;;;6.10;;
19183;SDS011;9724;51.194;6.856;2023-06-10T09:59:47;9.88;;;6.18;;
19183;SDS011;9724;51.194;6.856;2023-06-10T10:02:13;8.80;;;5.75;;
19183;SDS011;9724;51.194;6.856;2023-06-10T10:04:41;6.60;;;6.00;;
19183;SDS011;9724;51.194;6.856;2023-06-10T10:07:07;10.82;;;6.28;;
19183;SDS011;9724;51.194;6.856;2023-06-10T10:09:35;9.35;;;6.22;;
19183;SDS011;9724;51.194;6.856;2023-06-10T10:12:02;10.10;;;6.15;;
19183;SDS011;9724;51.194;6.856;2023-06-10T10:14:32;9.45;;;5.97;;
19183;SDS011;9724;51.194;6.856;2023-06-10T10:16:58;9.50;;;6.00;;
19183;SDS011;9724;51.194;6.856;2023-06-10T10:19:27;6.30;;;5.70;;
19183;SDS011;9724;51.194;6.856;2023-06-10T10:21:57;7.28;;;5.88;;
19183;SDS011;9724;51.194;6.856;2023-06-10T10:24:30;7.20;;;5.75;;
19183;SDS011;9724;51.194;6.856;2023-06-10T10:27:00;8.70;;;6.32;;
19183;SDS011;9724;51.194;6.856;2023-06-10T10:29:29;10.43;;;5.63;;
19183;SDS011;9724;51.194;6.856;2023-06-10T10:31:57;14.63;;;5.80;;
19183;SDS011;9724;51.194;6.856;2023-06-10T10:34:27;9.68;;;5.95;;
19183;SDS011;9724;51.194;6.856;2023-06-10T10:36:56;11.65;;;6.25;;
19183;SDS011;9724;51.194;6.856;2023-06-10T10:39:23;7.88;;;5.55;;
19183;SDS011;9724;51.194;6.856;2023-06-10T10:41:50;6.35;;;5.75;;
19183;SDS011;9724;51.194;6.856;2023-06-10T10:44:17;7.93;;;5.65;;
19183;SDS011;9724;51.194;6.856;2023-06-10T10:46:48;5.82;;;5.20;;
19183;SDS011;9724;51.194;6.856;2023-06-10T10:49:15;7.03;;;5.63;;
19183;SDS011;9724;51.194;6.856;2023-06-10T10:51:55;9.00;;;5.70;;
19183;SDS011;9724;51.194;6.856;2023-06-10T10:54:27;12.25;;;5.90;;
19183;SDS011;9724;51.194;6.856;2023-06-10T10:57:09;8.65;;;6.10;;
19183;SDS011;9724;51.194;6.856;2023-06-10T10:59:43;7.63;;;5.90;;
19183;SDS011;9724;51.194;6.856;2023-06-10T11:02:10;7.70;;;5.95;;
19183;SDS011;9724;51.194;6.856;2023-06-10T11:04:42;7.25;;;5.45;;
19183;SDS011;9724;51.194;6.856;2023-06-10T11:07:10;8.65;;;5.65;;
19183;SDS011;9724;51.194;6.856;2023-06-10T11:09:39;6.80;;;5.57;;
19183;SDS011;9724;51.194;6.856;2023-06-10T11:12:24;10.50;;;5.60;;
19183;SDS011;9724;51.194;6.856;2023-06-10T11:14:54;10.00;;;5.50;;
19183;SDS011;9724;51.194;6.856;2023-06-10T11:17:21;9.43;;;5.13;;
19183;SDS011;9724;51.194;6.856;2023-06-10T11:19:47;9.10;;;5.43;;
19183;SDS011;9724;51.194;6.856;2023-06-10T11:22:16;8.10;;;5.90;;
19183;SDS011;9724;51.194;6.856;2023-06-10T11:24:46;12.30;;;5.75;;
19183;SDS011;9724;51.194;6.856;2023-06-10T11:27:14;5.78;;;5.28;;
19183;SDS011;9724;51.194;6.856;2023-06-10T11:29:55;6.00;;;5.40;;
19183;SDS011;9724;51.194;6.856;2023-06-10T11:32:22;6.57;;;5.88;;
19183;SDS011;9724;51.194;6.856;2023-06-10T11:34:51;8.52;;;5.80;;
19183;SDS011;9724;51.194;6.856;2023-06-10T11:37:18;8.25;;;5.80;;
19183;SDS011;9724;51.194;6.856;2023-06-10T11:39:44;7.88;;;5.93;;
19183;SDS011;9724;51.194;6.856;2023-06-10T11:42:11;8.90;;;6.20;;
19183;SDS011;9724;51.194;6.856;2023-06-10T11:44:37;6.63;;;5.50;;
19183;SDS011;9724;51.194;6.856;2023-06-10T11:47:05;6.15;;;5.43;;
19183;SDS011;9724;51.194;6.856;2023-06-10T11:49:31;7.72;;;6.03;;
19183;SDS011;9724;51.194;6.856;2023-06-10T11:51:58;10.93;;;5.88;;
19183;SDS011;9724;51.194;6.856;2023-06-10T11:54:24;6.47;;;5.47;;
19183;SDS011;9724;51.194;6.856;2023-06-10T11:56:56;6.28;;;5.70;;
19183;SDS011;9724;51.194;6.856;2023-06-10T11:59:26;8.10;;;5.57;;
19183;SDS011;9724;51.194;6.856;2023-06-10T12:01:53;8.95;;;5.78;;
19183;SDS011;9724;51.194;6.856;2023-06-10T12:04:20;7.80;;;5.70;;
19183;SDS011;9724;51.194;6.856;2023-06-10T12:06:48;10.35;;;5.95;;
19183;SDS011;9724;51.194;6.856;2023-06-10T12:09:17;8.60;;;5.65;;
19183;SDS011;9724;51.194;6.856;2023-06-10T12:11:53;18.70;;;6.45;;
19183;SDS011;9724;51.194;6.856;2023-06-10T12:17:20;10.50;;;6.05;;
19183;SDS011;9724;51.194;6.856;2023-06-10T12:19:48;7.78;;;5.78;;
19183;SDS011;9724;51.194;6.856;2023-06-10T12:22:14;12.38;;;6.53;;
19183;SDS011;9724;51.194;6.856;2023-06-10T12:24:44;7.15;;;6.00;;
19183;SDS011;9724;51.194;6.856;2023-06-10T12:27:11;9.68;;;6.30;;
19183;SDS011;9724;51.194;6.856;2023-06-10T12:29:37;12.07;;;6.47;;
19183;SDS011;9724;51.194;6.856;2023-06-10T12:32:04;8.88;;;6.20;;
19183;SDS011;9724;51.194;6.856;2023-06-10T12:34:32;7.45;;;5.97;;
19183;SDS011;9724;51.194;6.856;2023-06-10T12:37:01;10.90;;;6.10;;
19183;SDS011;9724;51.194;6.856;2023-06-10T12:39:29;5.95;;;5.35;;
19183;SDS011;9724;51.194;6.856;2023-06-10T12:41:56;10.32;;;5.60;;
19183;SDS011;9724;51.194;6.856;2023-06-10T12:44:30;9.82;;;6.10;;
19183;SDS011;9724;51.194;6.856;2023-06-10T12:47:00;9.15;;;5.78;;
19183;SDS011;9724;51.194;6.856;2023-06-10T12:49:27;6.47;;;5.38;;
19183;SDS011;9724;51.194;6.856;2023-06-10T12:51:53;11.68;;;9.48;;
19183;SDS011;9724;51.194;6.856;2023-06-10T12:54:20;10.55;;;7.45;;
19183;SDS011;9724;51.194;6.856;2023-06-10T12:56:47;9.95;;;6.20;;
19183;SDS011;9724;51.194;6.856;2023-06-10T12:59:13;9.85;;;6.13;;
19183;SDS011;9724;51.194;6.856;2023-06-10T13:01:39;10.93;;;6.28;;
19183;SDS011;9724;51.194;6.856;2023-06-10T13:04:06;7.63;;;5.93;;
19183;SDS011;9724;51.194;6.856;2023-06-10T13:06:33;7.15;;;5.63;;
19183;SDS011;9724;51.194;6.856;2023-06-10T13:09:02;9.95;;;5.85;;
19183;SDS011;9724;51.194;6.856;2023-06-10T13:11:29;9.95;;;6.03;;
19183;SDS011;9724;51.194;6.856;2023-06-10T13:13:56;7.95;;;5.93;;
19183;SDS011;9724;51.194;6.856;2023-06-10T13:16:22;11.10;;;6.10;;
19183;SDS011;9724;51.194;6.856;2023-06-10T13:18:48;7.72;;;5.78;;
19183;SDS011;9724;51.194;6.856;2023-06-10T13:21:14;9.55;;;5.70;;
19183;SDS011;9724;51.194;6.856;2023-06-10T13:23:43;7.50;;;5.97;;
19183;SDS011;9724;51.194;6.856;2023-06-10T13:26:10;7.15;;;5.55;;
19183;SDS011;9724;51.194;6.856;2023-06-10T13:28:37;7.78;;;5.63;;
19183;SDS011;9724;51.194;6.856;2023-06-10T13:31:03;6.15;;;5.55;;
19183;SDS011;9724;51.194;6.856;2023-06-10T13:33:30;11.57;;;6.18;;
19183;SDS011;9724;51.194;6.856;2023-06-10T13:35:56;6.40;;;5.75;;
19183;SDS011;9724;51.194;6.856;2023-06-10T13:38:22;7.00;;;6.30;;
19183;SDS011;9724;51.194;6.856;2023-06-10T13:40:48;6.53;;;5.93;;
19183;SDS011;9724;51.194;6.856;2023-06-10T13:43:16;6.32;;;5.38;;
19183;SDS011;9724;51.194;6.856;2023-06-10T13:45:43;9.63;;;7.40;;
19183;SDS011;9724;51.194;6.856;2023-06-10T13:48:10;6.22;;;5.57;;
19183;SDS011;9724;51.194;6.856;2023-06-10T13:50:37;7.10;;;5.97;;
19183;SDS011;9724;51.194;6.856;2023-06-10T13:53:03;7.90;;;5.32;;
19183;SDS011;9724;51.194;6.856;2023-06-10T13:55:30;6.85;;;5.88;;
19183;SDS011;9724;51.194;6.856;2023-06-10T13:57:56;9.38;;;5.90;;
19183;SDS011;9724;51.194;6.856;2023-06-10T14:00:23;6.10;;;5.50;;
19183;SDS011;9724;51.194;6.856;2023-06-10T14:02:50;7.20;;;5.70;;
19183;SDS011;9724;51.194;6.856;2023-06-10T14:05:16;6.82;;;5.55;;
19183;SDS011;9724;51.194;6.856;2023-06-10T14:07:43;8.13;;;5.60;;
19183;SDS011;9724;51.194;6.856;2023-06-10T14:10:09;9.98;;;5.20;;
19183;SDS011;9724;51.194;6.856;2023-06-10T14:12:36;6.28;;;5.68;;
19183;SDS011;9724;51.194;6.856;2023-06-10T14:15:02;7.40;;;5.15;;
19183;SDS011;9724;51.194;6.856;2023-06-10T14:17:29;8.00;;;5.88;;
19183;SDS011;9724;51.194;6.856;2023-06-10T14:19:56;7.43;;;5.55;;
19183;SDS011;9724;51.194;6.856;2023-06-10T14:22:22;9.52;;;7.03;;
19183;SDS011;9724;51.194;6.856;2023-06-10T14:24:49;8.90;;;5.80;;
19183;SDS011;9724;51.194;6.856;2023-06-10T14:27:15;6.35;;;4.97;;
19183;SDS011;9724;51.194;6.856;2023-06-10T14:29:42;8.18;;;5.80;;
19183;SDS011;9724;51.194;6.856;2023-06-10T14:32:08;7.95;;;5.20;;
19183;SDS011;9724;51.194;6.856;2023-06-10T14:34:35;9.00;;;5.10;;
19183;SDS011;9724;51.194;6.856;2023-06-10T14:37:02;8.30;;;4.90;;
19183;SDS011;9724;51.194;6.856;2023-06-10T14:39:29;8.98;;;5.57;;
19183;SDS011;9724;51.194;6.856;2023-06-10T14:41:56;6.40;;;5.72;;
19183;SDS011;9724;51.194;6.856;2023-06-10T14:44:22;12.07;;;5.45;;
19183;SDS011;9724;51.194;6.856;2023-06-10T14:46:48;6.75;;;5.40;;
19183;SDS011;9724;51.194;6.856;2023-06-10T14:49:14;16.20;;;5.57;;
19183;SDS011;9724;51.194;6.856;2023-06-10T14:51:41;8.70;;;5.70;;
19183;SDS011;9724;51.194;6.856;2023-06-10T14:54:08;7.03;;;5.47;;
19183;SDS011;9724;51.194;6.856;2023-06-10T14:56:34;6.68;;;5.45;;
19183;SDS011;9724;51.194;6.856;2023-06-10T15:02:41;6.82;;;5.55;;